createdAt,value
2023-04-10T00:01:40.291Z,18.05
2023-04-10T00:04:14.169Z,18.03
2023-04-10T00:06:41.861Z,18.04
2023-04-10T00:09:09.555Z,18.06
2023-04-10T00:11:36.213Z,18.11
2023-04-10T00:14:03.985Z,18.07
2023-04-10T00:16:32.031Z,17.98
2023-04-10T00:18:59.158Z,17.90
2023-04-10T00:21:29.003Z,17.87
2023-04-10T00:24:00.803Z,17.83
2023-04-10T00:26:27.562Z,17.83
2023-04-10T00:28:55.200Z,17.81
2023-04-10T00:31:24.494Z,17.77
2023-04-10T00:33:57.846Z,17.73
2023-04-10T00:36:28.105Z,17.65
2023-04-10T00:38:55.006Z,17.61
2023-04-10T00:41:28.895Z,17.66
2023-04-10T00:43:56.550Z,17.67
2023-04-10T00:46:24.106Z,17.64
2023-04-10T00:48:54.857Z,17.54
2023-04-10T00:51:22.525Z,17.52
2023-04-10T00:53:52.111Z,17.47
2023-04-10T00:56:20.287Z,17.43
2023-04-10T00:58:48.359Z,17.41
2023-04-10T01:01:15.363Z,17.40
2023-04-10T01:03:44.010Z,17.36
2023-04-10T01:06:30.092Z,17.34
2023-04-10T01:09:10.059Z,17.35
2023-04-10T01:11:54.022Z,17.36
2023-04-10T01:14:33.343Z,17.34
2023-04-10T01:17:06.743Z,17.34
2023-04-10T01:19:52.636Z,17.33
2023-04-10T01:22:20.141Z,17.35
2023-04-10T01:25:06.436Z,17.39
2023-04-10T01:27:41.832Z,17.41
2023-04-10T01:30:08.527Z,17.39
2023-04-10T01:32:36.396Z,17.42
2023-04-10T01:35:05.989Z,17.50
2023-04-10T01:37:38.174Z,17.58
2023-04-10T01:40:08.060Z,17.64
2023-04-10T01:42:38.353Z,17.68
2023-04-10T01:45:06.794Z,17.70
2023-04-10T01:47:33.929Z,17.73
2023-04-10T01:50:01.634Z,17.74
2023-04-10T01:52:29.896Z,17.73
2023-04-10T01:55:05.814Z,17.72
2023-04-10T01:57:39.635Z,17.74
2023-04-10T02:00:09.729Z,17.74
2023-04-10T02:02:46.653Z,17.76
2023-04-10T02:05:13.801Z,17.78
2023-04-10T02:07:55.789Z,17.77
2023-04-10T02:10:40.981Z,17.82
2023-04-10T02:13:07.605Z,17.94
2023-04-10T02:15:35.737Z,18.04
2023-04-10T02:18:04.266Z,18.06
2023-04-10T02:20:31.876Z,17.96
2023-04-10T02:23:03.034Z,17.86
2023-04-10T02:25:33.699Z,17.83
2023-04-10T02:28:04.613Z,17.80
2023-04-10T02:30:33.722Z,17.69
2023-04-10T02:33:00.660Z,17.61
2023-04-10T02:35:29.027Z,17.56
2023-04-10T02:37:55.816Z,17.60
2023-04-10T02:40:22.860Z,17.61
2023-04-10T02:42:56.953Z,17.53
2023-04-10T02:45:23.659Z,17.49
2023-04-10T02:47:51.484Z,17.52
2023-04-10T02:50:18.982Z,17.49
2023-04-10T02:52:46.114Z,17.46
2023-04-10T02:55:12.888Z,17.44
2023-04-10T02:57:42.152Z,17.43
2023-04-10T03:00:10.393Z,17.43
2023-04-10T03:03:01.823Z,17.39
2023-04-10T03:05:34.197Z,17.23
2023-04-10T03:08:01.221Z,17.16
2023-04-10T03:10:28.730Z,17.13
2023-04-10T03:12:57.198Z,17.14
2023-04-10T03:15:24.730Z,17.15
2023-04-10T03:17:51.825Z,17.17
2023-04-10T03:20:18.959Z,17.13
2023-04-10T03:22:45.755Z,17.05
2023-04-10T03:25:12.564Z,17.05
2023-04-10T03:27:41.551Z,17.03
2023-04-10T03:30:10.325Z,17.02
2023-04-10T03:32:42.480Z,16.98
2023-04-10T03:35:10.131Z,16.98
2023-04-10T03:37:37.761Z,17.03
2023-04-10T03:40:06.914Z,17.04
2023-04-10T03:42:34.122Z,17.05
2023-04-10T03:45:03.969Z,17.10
2023-04-10T03:47:33.688Z,17.13
2023-04-10T03:50:02.429Z,17.11
2023-04-10T03:52:35.601Z,17.12
2023-04-10T03:55:02.485Z,17.08
2023-04-10T03:57:30.002Z,17.11
2023-04-10T04:00:02.174Z,17.06
2023-04-10T04:02:36.520Z,17.03
2023-04-10T04:05:05.056Z,17.05
2023-04-10T04:07:51.983Z,17.05
2023-04-10T04:10:36.305Z,17.02
2023-04-10T04:13:23.557Z,17.06
2023-04-10T04:16:10.871Z,17.04
2023-04-10T04:18:53.029Z,17.05
2023-04-10T04:21:40.762Z,17.03
2023-04-10T04:24:18.534Z,17.00
2023-04-10T04:27:02.117Z,17.00
2023-04-10T04:29:53.170Z,17.01
2023-04-10T04:32:42.375Z,16.98
2023-04-10T04:35:33.128Z,16.94
2023-04-10T04:38:29.701Z,16.89
2023-04-10T04:41:20.709Z,16.82
2023-04-10T04:44:18.739Z,16.84
2023-04-10T04:46:46.513Z,16.89
2023-04-10T04:49:28.333Z,16.95
2023-04-10T04:52:15.030Z,16.94
2023-04-10T04:54:49.712Z,16.90
2023-04-10T04:57:45.227Z,16.83
2023-04-10T05:00:28.958Z,16.85
2023-04-10T05:03:08.223Z,16.77
2023-04-10T05:06:01.590Z,16.82
2023-04-10T05:08:52.628Z,16.76
2023-04-10T05:11:42.986Z,16.78
2023-04-10T05:14:32.667Z,16.78
2023-04-10T05:17:23.424Z,16.80
2023-04-10T05:19:58.394Z,16.83
2023-04-10T05:23:01.321Z,16.81
2023-04-10T05:25:43.311Z,16.82
2023-04-10T05:28:20.371Z,16.73
2023-04-10T05:31:05.767Z,16.71
2023-04-10T05:33:38.554Z,16.73
2023-04-10T05:36:24.225Z,16.73
2023-04-10T05:39:15.128Z,16.75
2023-04-10T05:42:01.266Z,16.80
2023-04-10T05:44:44.714Z,16.86
2023-04-10T05:47:31.417Z,16.81
2023-04-10T05:50:11.428Z,16.89
2023-04-10T05:52:58.656Z,17.06
2023-04-10T05:55:43.309Z,17.23
2023-04-10T05:58:33.917Z,17.37
2023-04-10T06:01:20.106Z,17.46
2023-04-10T06:03:47.124Z,17.50
2023-04-10T06:06:15.166Z,17.57
2023-04-10T06:08:43.505Z,17.58
2023-04-10T06:11:10.565Z,17.63
2023-04-10T06:13:37.616Z,17.67
2023-04-10T06:16:09.034Z,17.68
2023-04-10T06:18:38.262Z,17.65
2023-04-10T06:21:05.600Z,17.60
2023-04-10T06:24:43.828Z,16.32
2023-04-10T06:27:12.554Z,17.30
2023-04-10T06:29:41.021Z,17.43
2023-04-10T06:32:09.975Z,17.48
2023-04-10T06:34:39.179Z,17.51
2023-04-10T06:37:08.191Z,17.53
2023-04-10T06:39:37.976Z,17.54
2023-04-10T06:42:06.698Z,17.49
2023-04-10T06:44:54.776Z,17.45
2023-04-10T06:47:23.137Z,17.40
2023-04-10T06:49:54.262Z,17.33
2023-04-10T06:52:22.282Z,17.32
2023-04-10T06:54:50.923Z,17.33
2023-04-10T06:57:19.081Z,17.34
2023-04-10T06:59:47.201Z,17.36
2023-04-10T07:02:15.578Z,17.38
2023-04-10T07:04:43.987Z,17.40
2023-04-10T07:07:16.142Z,17.39
2023-04-10T07:09:44.270Z,17.39
2023-04-10T07:12:12.486Z,17.45
2023-04-10T07:14:43.637Z,17.51
2023-04-10T07:17:12.819Z,17.59
2023-04-10T07:19:41.111Z,17.62
2023-04-10T07:22:12.837Z,17.58
2023-04-10T07:24:42.896Z,17.57
2023-04-10T07:27:12.475Z,17.44
2023-04-10T07:29:45.863Z,17.26
2023-04-10T07:32:14.156Z,17.25
2023-04-10T07:34:42.779Z,17.22
2023-04-10T07:37:14.701Z,17.25
2023-04-10T07:39:43.457Z,17.34
2023-04-10T07:42:11.718Z,17.43
2023-04-10T07:44:39.949Z,17.48
2023-04-10T07:47:08.107Z,17.47
2023-04-10T07:49:36.234Z,17.51
2023-04-10T07:52:05.675Z,17.60
2023-04-10T07:54:34.501Z,17.61
2023-04-10T07:57:04.693Z,17.62
2023-04-10T07:59:33.092Z,17.68
2023-04-10T08:02:01.472Z,17.75
2023-04-10T08:04:34.070Z,17.75
2023-04-10T08:07:02.400Z,17.69
2023-04-10T08:09:30.905Z,17.51
2023-04-10T08:12:00.613Z,17.39
2023-04-10T08:14:30.156Z,17.33
2023-04-10T08:17:03.262Z,17.27
2023-04-10T08:19:32.292Z,17.20
2023-04-10T08:22:00.710Z,17.18
2023-04-10T08:24:29.506Z,17.12
2023-04-10T08:27:17.630Z,17.09
2023-04-10T08:29:46.523Z,17.07
2023-04-10T08:32:14.812Z,17.10
2023-04-10T08:34:43.162Z,17.13
2023-04-10T08:37:12.463Z,17.14
2023-04-10T08:39:41.150Z,17.20
2023-04-10T08:42:13.734Z,17.28
2023-04-10T08:44:43.698Z,17.29
2023-04-10T08:47:12.048Z,17.28
2023-04-10T08:49:54.397Z,17.33
2023-04-10T08:52:26.581Z,17.42
2023-04-10T08:54:56.278Z,17.47
2023-04-10T08:57:27.063Z,17.51
2023-04-10T08:59:55.776Z,17.57
2023-04-10T09:02:26.703Z,17.59
2023-04-10T09:04:55.711Z,17.60
2023-04-10T09:07:24.235Z,17.65
2023-04-10T09:09:52.447Z,17.70
2023-04-10T09:12:22.595Z,17.71
2023-04-10T09:14:53.610Z,17.74
2023-04-10T09:17:31.431Z,17.82
2023-04-10T09:20:02.444Z,17.90
2023-04-10T09:22:34.869Z,17.93
2023-04-10T09:25:35.760Z,17.93
2023-04-10T09:28:08.187Z,17.97
2023-04-10T09:30:37.542Z,18.02
2023-04-10T09:33:35.795Z,18.06
2023-04-10T09:36:04.265Z,18.12
2023-04-10T09:38:32.667Z,18.17
2023-04-10T09:41:08.611Z,18.28
2023-04-10T09:43:39.084Z,18.44
2023-04-10T09:46:07.786Z,18.59
2023-04-10T09:48:37.266Z,18.76
2023-04-10T09:51:05.954Z,18.87
2023-04-10T09:53:36.287Z,18.95
2023-04-10T09:56:05.705Z,19.09
2023-04-10T09:58:35.111Z,19.15
2023-04-10T10:01:04.292Z,19.16
2023-04-10T10:03:33.785Z,19.28
2023-04-10T10:06:02.318Z,19.45
2023-04-10T10:08:41.608Z,19.63
2023-04-10T10:11:12.307Z,19.81
2023-04-10T10:13:48.522Z,19.94
2023-04-10T10:16:29.105Z,20.10
2023-04-10T10:19:06.788Z,20.24
2023-04-10T10:21:35.211Z,20.35
2023-04-10T10:24:09.188Z,20.29
2023-04-10T10:26:39.290Z,20.16
2023-04-10T10:29:11.015Z,20.01
2023-04-10T10:31:42.026Z,19.86
2023-04-10T10:34:11.297Z,19.81
2023-04-10T10:36:40.357Z,19.92
2023-04-10T10:39:11.319Z,19.97
2023-04-10T10:41:43.606Z,20.06
2023-04-10T10:44:37.702Z,19.97
2023-04-10T10:47:10.382Z,19.99
2023-04-10T10:49:56.353Z,20.13
2023-04-10T10:52:43.790Z,20.29
2023-04-10T10:55:39.826Z,20.27
2023-04-10T10:58:09.272Z,20.09
2023-04-10T11:00:52.996Z,20.15
2023-04-10T11:03:28.913Z,20.25
2023-04-10T11:06:03.206Z,20.32
2023-04-10T11:08:35.252Z,20.24
2023-04-10T11:11:07.744Z,20.28
2023-04-10T11:13:38.245Z,20.52
2023-04-10T11:16:08.307Z,20.59
2023-04-10T11:18:47.193Z,20.58
2023-04-10T11:21:17.633Z,20.53
2023-04-10T11:23:58.385Z,20.48
2023-04-10T11:26:42.260Z,20.42
2023-04-10T11:29:14.354Z,20.43
2023-04-10T11:31:47.046Z,20.46
2023-04-10T11:34:15.924Z,20.48
2023-04-10T11:36:44.804Z,20.52
2023-04-10T11:39:13.385Z,20.52
2023-04-10T11:41:48.162Z,20.60
2023-04-10T11:44:31.284Z,20.59
2023-04-10T11:46:59.542Z,20.51
2023-04-10T11:49:30.654Z,20.47
2023-04-10T11:51:58.871Z,20.46
2023-04-10T11:54:28.039Z,20.55
2023-04-10T11:57:00.167Z,20.54
2023-04-10T11:59:28.661Z,20.51
2023-04-10T12:02:16.382Z,20.39
2023-04-10T12:04:44.994Z,20.42
2023-04-10T12:07:13.754Z,20.50
2023-04-10T12:09:42.872Z,20.41
2023-04-10T12:12:12.796Z,20.40
2023-04-10T12:14:42.459Z,20.41
2023-04-10T12:17:11.578Z,20.33
2023-04-10T12:19:53.444Z,20.23
2023-04-10T12:22:21.896Z,20.05
2023-04-10T12:24:54.631Z,19.80
2023-04-10T12:27:24.019Z,19.75
2023-04-10T12:29:53.729Z,19.93
2023-04-10T12:32:22.748Z,20.04
2023-04-10T12:34:57.367Z,20.07
2023-04-10T12:37:26.769Z,20.05
2023-04-10T12:40:09.325Z,20.05
2023-04-10T12:42:42.307Z,19.76
2023-04-10T12:45:13.099Z,19.46
2023-04-10T12:47:49.169Z,19.08
2023-04-10T12:50:19.116Z,18.78
2023-04-10T12:53:06.812Z,18.69
2023-04-10T12:55:34.935Z,18.65
2023-04-10T12:58:18.110Z,18.68
2023-04-10T13:00:47.125Z,18.78
2023-04-10T13:03:15.900Z,18.95
2023-04-10T13:05:44.748Z,19.03
2023-04-10T13:08:13.852Z,19.18
2023-04-10T13:10:43.652Z,19.27
2023-04-10T13:13:14.315Z,19.22
2023-04-10T13:15:43.177Z,19.25
2023-04-10T13:18:11.573Z,19.33
2023-04-10T13:20:40.835Z,19.43
2023-04-10T13:23:09.996Z,19.46
2023-04-10T13:25:43.118Z,19.49
2023-04-10T13:28:11.688Z,19.43
2023-04-10T13:30:41.931Z,19.26
2023-04-10T13:33:11.326Z,19.23
2023-04-10T13:35:40.489Z,19.18
2023-04-10T13:38:11.773Z,19.15
2023-04-10T13:40:43.749Z,19.15
2023-04-10T13:43:13.570Z,19.15
2023-04-10T13:45:41.807Z,19.19
2023-04-10T13:48:11.393Z,19.26
2023-04-10T13:50:39.600Z,19.34
2023-04-10T13:53:15.068Z,19.41
2023-04-10T13:55:47.721Z,19.48
2023-04-10T13:58:16.246Z,19.57
2023-04-10T14:00:47.300Z,19.67
2023-04-10T14:03:17.118Z,19.80
2023-04-10T14:05:45.901Z,19.92
2023-04-10T14:08:16.067Z,20.02
2023-04-10T14:10:44.921Z,20.13
2023-04-10T14:13:13.210Z,20.24
2023-04-10T14:15:42.439Z,20.35
2023-04-10T14:18:11.331Z,20.44
2023-04-10T14:20:42.761Z,20.45
2023-04-10T14:23:17.408Z,20.43
2023-04-10T14:25:46.308Z,20.46
2023-04-10T14:28:18.234Z,20.50
2023-04-10T14:30:48.490Z,20.55
2023-04-10T14:33:22.317Z,20.59
2023-04-10T14:35:50.600Z,20.64
2023-04-10T14:38:19.425Z,20.68
2023-04-10T14:40:50.269Z,20.72
2023-04-10T14:43:19.597Z,20.81
2023-04-10T14:45:49.325Z,20.87
2023-04-10T14:48:21.342Z,20.87
2023-04-10T14:50:51.383Z,20.86
2023-04-10T14:54:36.382Z,20.84
2023-04-10T14:57:06.197Z,20.83
2023-04-10T14:59:35.811Z,20.83
2023-04-10T15:02:03.946Z,20.88
2023-04-10T15:04:32.802Z,20.93
2023-04-10T15:07:01.622Z,20.99
2023-04-10T15:09:30.406Z,20.99
2023-04-10T15:12:02.055Z,20.99
2023-04-10T15:14:31.040Z,20.96
2023-04-10T15:16:59.276Z,20.95
2023-04-10T15:19:33.530Z,20.97
2023-04-10T15:22:02.626Z,21.01
2023-04-10T15:24:37.041Z,21.07
2023-04-10T15:27:11.702Z,21.14
2023-04-10T15:29:42.528Z,21.16
2023-04-10T15:32:15.472Z,21.16
2023-04-10T15:34:46.887Z,21.13
2023-04-10T15:37:15.882Z,21.10
2023-04-10T15:39:44.822Z,21.04
2023-04-10T15:42:13.396Z,21.03
2023-04-10T15:44:41.927Z,21.05
2023-04-10T15:47:10.044Z,21.03
2023-04-10T15:49:44.087Z,21.01
2023-04-10T15:52:12.882Z,21.00
2023-04-10T15:54:43.416Z,20.98
2023-04-10T15:57:15.366Z,20.97
2023-04-10T15:59:43.839Z,20.99
2023-04-10T16:02:12.137Z,21.01
2023-04-10T16:04:46.930Z,21.04
2023-04-10T16:07:15.637Z,21.03
2023-04-10T16:09:43.763Z,20.99
2023-04-10T16:12:14.571Z,20.96
2023-04-10T16:14:43.226Z,20.93
2023-04-10T16:17:11.401Z,20.90
2023-04-10T16:19:55.861Z,20.88
2023-04-10T16:22:24.202Z,20.87
2023-04-10T16:24:55.761Z,20.86
2023-04-10T16:27:24.272Z,20.81
2023-04-10T16:29:52.458Z,20.76
2023-04-10T16:32:23.296Z,20.71
2023-04-10T16:34:52.153Z,20.64
2023-04-10T16:37:20.681Z,20.59
2023-04-10T16:39:56.371Z,20.54
2023-04-10T16:42:24.570Z,20.51
2023-04-10T16:44:52.863Z,20.45
2023-04-10T16:47:21.326Z,20.39
2023-04-10T16:49:49.800Z,20.32
2023-04-10T16:52:23.453Z,20.21
2023-04-10T16:54:51.850Z,20.11
2023-04-10T16:57:21.374Z,20.02
2023-04-10T17:00:00.567Z,19.96
2023-04-10T17:02:33.058Z,19.91
2023-04-10T17:05:01.459Z,19.81
2023-04-10T17:07:30.489Z,19.74
2023-04-10T17:09:59.488Z,19.66
2023-04-10T17:12:27.892Z,19.63
2023-04-10T17:15:03.727Z,19.60
2023-04-10T17:17:34.326Z,19.57
2023-04-10T17:20:03.029Z,19.54
2023-04-10T17:22:32.072Z,19.47
2023-04-10T17:25:00.433Z,19.38
2023-04-10T17:27:29.169Z,19.31
2023-04-10T17:29:59.866Z,19.27
2023-04-10T17:32:32.147Z,19.23
2023-04-10T17:35:00.521Z,19.21
2023-04-10T17:37:28.423Z,19.21
2023-04-10T17:39:56.413Z,19.25
2023-04-10T17:42:25.908Z,19.29
2023-04-10T17:44:54.264Z,19.31
2023-04-10T17:47:22.681Z,19.33
2023-04-10T17:49:50.891Z,19.37
2023-04-10T17:52:19.097Z,19.43
2023-04-10T17:54:48.915Z,19.48
2023-04-10T17:57:17.169Z,19.49
2023-04-10T17:59:49.193Z,19.48
2023-04-10T18:02:18.289Z,19.42
2023-04-10T18:04:46.509Z,19.34
2023-04-10T18:07:18.673Z,19.32
2023-04-10T18:09:48.339Z,19.32
2023-04-10T18:12:16.419Z,19.33
2023-04-10T18:14:50.474Z,19.36
2023-04-10T18:17:19.008Z,19.36
2023-04-10T18:19:47.269Z,19.35
2023-04-10T18:22:16.142Z,19.32
2023-04-10T18:24:48.177Z,19.33
2023-04-10T18:27:17.873Z,19.36
2023-04-10T18:29:46.936Z,19.39
2023-04-10T18:32:15.579Z,19.41
2023-04-10T18:34:45.596Z,19.41
2023-04-10T18:37:14.019Z,19.39
2023-04-10T18:42:43.000Z,18.16
2023-04-10T18:45:13.195Z,19.16
2023-04-10T18:47:43.433Z,19.32
2023-04-10T18:50:12.059Z,19.38
2023-04-10T18:52:45.339Z,19.38
2023-04-10T18:55:13.488Z,19.36
2023-04-10T18:57:41.886Z,19.33
2023-04-10T19:00:11.820Z,19.28
2023-04-10T19:02:41.088Z,19.21
2023-04-10T19:05:14.204Z,19.19
2023-04-10T19:07:52.943Z,19.19
2023-04-10T19:10:29.363Z,19.17
2023-04-10T19:12:57.665Z,19.10
2023-04-10T19:15:27.276Z,19.01
2023-04-10T19:17:56.540Z,18.92
2023-04-10T19:20:52.717Z,18.86
2023-04-10T19:23:13.998Z,18.87
2023-04-10T19:25:44.085Z,18.90
2023-04-10T19:28:12.263Z,18.91
2023-04-10T19:31:01.102Z,18.88
2023-04-10T19:33:30.178Z,18.82
2023-04-10T19:35:59.254Z,18.80
2023-04-10T19:38:29.528Z,18.79
2023-04-10T19:40:58.658Z,18.80
2023-04-10T19:43:26.873Z,18.79
2023-04-10T19:45:56.300Z,18.74
2023-04-10T19:48:25.268Z,18.63
2023-04-10T19:50:53.443Z,18.53
2023-04-10T19:53:23.619Z,18.47
2023-04-10T19:55:52.162Z,18.48
2023-04-10T19:58:38.934Z,18.54
2023-04-10T20:01:12.400Z,18.63
2023-04-10T20:03:43.081Z,18.70
2023-04-10T20:06:11.580Z,18.68
2023-04-10T20:08:39.729Z,18.64
2023-04-10T20:11:09.601Z,18.61
2023-04-10T20:13:39.328Z,18.60
2023-04-10T20:16:08.577Z,18.59
2023-04-10T20:18:38.402Z,18.59
2023-04-10T20:21:08.062Z,18.59
2023-04-10T20:23:38.522Z,18.62
2023-04-10T20:26:06.918Z,18.65
2023-04-10T20:28:35.085Z,18.68
2023-04-10T20:31:03.456Z,18.71
2023-04-10T20:33:32.253Z,18.74
2023-04-10T20:36:00.452Z,18.79
2023-04-10T20:38:29.738Z,18.86
2023-04-10T20:40:57.981Z,18.91
2023-04-10T20:43:26.708Z,18.95
2023-04-10T20:45:55.089Z,18.95
2023-04-10T20:48:23.154Z,18.95
2023-04-10T20:50:51.961Z,18.94
2023-04-10T20:53:20.511Z,18.94
2023-04-10T20:55:51.648Z,18.95
2023-04-10T20:58:20.660Z,18.94
2023-04-10T21:00:53.166Z,18.93
2023-04-10T21:03:22.475Z,18.92
2023-04-10T21:05:53.207Z,18.91
2023-04-10T21:08:23.793Z,18.88
2023-04-10T21:10:51.939Z,18.85
2023-04-10T21:13:20.005Z,18.84
2023-04-10T21:15:49.719Z,18.82
2023-04-10T21:18:17.946Z,18.76
2023-04-10T21:20:50.405Z,18.67
2023-04-10T21:23:18.741Z,18.55
2023-04-10T21:25:52.178Z,18.45
2023-04-10T21:28:21.720Z,18.44
2023-04-10T21:30:49.848Z,18.45
2023-04-10T21:33:18.478Z,18.47
2023-04-10T21:35:47.052Z,18.48
2023-04-10T21:38:15.497Z,18.48
2023-04-10T21:40:54.165Z,18.45
2023-04-10T21:43:22.968Z,18.40
2023-04-10T21:45:51.150Z,18.35
2023-04-10T21:48:21.248Z,18.35
2023-04-10T21:50:49.840Z,18.38
2023-04-10T21:53:19.211Z,18.36
2023-04-10T21:55:47.267Z,18.29
2023-04-10T21:58:15.515Z,18.17
2023-04-10T22:00:47.240Z,18.03
2023-04-10T22:03:16.676Z,17.86
2023-04-10T22:05:46.091Z,17.68
2023-04-10T22:08:15.064Z,17.54
2023-04-10T22:10:45.743Z,17.47
2023-04-10T22:13:30.425Z,17.45
2023-04-10T22:16:02.022Z,17.46
2023-04-10T22:18:31.569Z,17.52
2023-04-10T22:21:13.499Z,17.56
2023-04-10T22:23:42.661Z,17.61
2023-04-10T22:26:10.782Z,17.67
2023-04-10T22:28:42.731Z,17.74
2023-04-10T22:31:17.863Z,17.76
2023-04-10T22:33:45.987Z,17.74
2023-04-10T22:36:15.576Z,17.72
2023-04-10T22:38:43.805Z,17.68
2023-04-10T22:41:12.250Z,17.68
2023-04-10T22:43:40.805Z,17.68
2023-04-10T22:46:12.724Z,17.65
2023-04-10T22:48:41.559Z,17.65
2023-04-10T22:51:13.359Z,17.64
2023-04-10T22:53:43.591Z,17.64
2023-04-10T22:56:12.226Z,17.62
2023-04-10T22:58:43.422Z,17.59
2023-04-10T23:01:12.325Z,17.59
2023-04-10T23:03:41.162Z,17.59
2023-04-10T23:06:10.286Z,17.56
2023-04-10T23:08:38.662Z,17.54
2023-04-10T23:11:07.644Z,17.47
2023-04-10T23:13:39.876Z,17.40
2023-04-10T23:16:09.485Z,17.33
2023-04-10T23:18:39.029Z,17.23
2023-04-10T23:21:10.712Z,17.12
2023-04-10T23:23:39.005Z,17.05
2023-04-10T23:26:07.470Z,17.01
2023-04-10T23:28:36.526Z,17.01
2023-04-10T23:31:05.488Z,17.02
2023-04-10T23:33:33.643Z,17.03
2023-04-10T23:36:01.722Z,17.04
2023-04-10T23:38:31.139Z,17.05
2023-04-10T23:41:03.038Z,17.07
2023-04-10T23:43:32.055Z,17.10
2023-04-10T23:46:01.099Z,17.12
2023-04-10T23:48:29.668Z,17.11
2023-04-10T23:51:05.754Z,17.09
2023-04-10T23:53:33.857Z,17.04
2023-04-10T23:56:02.309Z,16.97
2023-04-10T23:58:30.978Z,16.92
